Nantucket Memorial Airport
KACK : now visible

Airfield :











YOU CAN JOIN US ON...

 
LOGIN :

Register | Disclaimer

   EN    FR    IT 

 









Legend :    VFR   Marginal VFR   IFR   Intensive IFR   Very Intensive IFR
Visi :
Ceiling :
>= 8 km
>= 3000ft
5 to 8 km
1000 to 3000 ft
1500m to 5 km
500 to 1000 ft
800 to 1500m
200 to 500 ft
< 800m
< 200 ft
Symbols :   Thunderstorms  Fog  Heavy snow  Heavy precipitations  Wind > 20 kt






- Airport Elevation : 47 ft
- IATA code : ACK


KACK - Nantucket Memorial

CURRENT METAR :
  • 221053Z 21014KT 7SM FEW002 21/19 A2968 RMK AO2 SLP051 T02060194

EXPIRED METARs :
  • 221012Z AUTO 21013KT 1 3/4SM R24/4000VP6000FT BR OVC002 21/19 A2964 RMK AO2 T02060194
  • 220953Z AUTO 20011KT 3SM BR OVC002 20/19 A2965 RMK AO2 SLP039 T02000189
  • 220853Z AUTO 20006KT 5SM BR BKN002 OVC008 20/19 A2964 RMK AO2 SLP036 T02000194 58003
  • 220816Z AUTO 21008KT 3SM BR OVC002 20/19 A2966 RMK AO2 T02000189

TAF KACK
Valid from the 22 at 08:00 until the 23 at 06:00 UTC


220828Z 2208/2306 22007KT 1/2SM FG VV002
FM221200 23010KT 1SM BR OVC003
FM221400 22010KT 3SM BR BKN008
FM221900 22010KT 3SM -SHRA BR BKN003
FM230000 32010KT P6SM -SHRA OVC008
FM230500 32010KT P6SM OVC035
KZBW FIR / North America



MET'MAP, your aeronautical weather chart ! - Copyright ORBIFLY December 2007 - Disclaimer

ORBIFLY MET'MAP TEAM :

Programming & Development : Alexandra Zaïnal
Concept & original design : Baudouin d'Aumeries
Assistance for programming : Marc-Olivier Méhu
Technical & hardware support : Manuel Goepfert

Contact : metmap@orbifly.com




SOURCES & CREDITS :

   NOAA       Earth
Advisory